Time;durP1;ratioP1;P1;durP2;ratioP2;P2;SDS_P1;SDS_P2;PMS_P1;PMS_P2;Temp;Humidity;BMP_temperature;BMP_pressure;BME280_temperature;BME280_humidity;BME280_pressure;Samples;Min_cycle;Max_cycle;Signal;HPM_P1;HPM_P2
2023/06/12 00:01:03;;;;;;;;;;;;;;;18.72;48.01;96259.66;5105234;28;19952;-73
2023/06/12 00:03:29;;;;;;;;;;;;;;;18.69;49.65;96262.88;5105439;28;19946;-73
2023/06/12 00:05:59;;;;;;;;;;;;;;;18.67;49.69;96260.47;5105423;28;20151;-77
2023/06/12 00:08:26;;;;;;;;;;;;;;;18.63;49.40;96254.13;5105384;28;19962;-70
2023/06/12 00:10:52;;;;;;;;;;;;;;;18.64;48.48;96260.22;5103447;28;19964;-71
2023/06/12 00:13:18;;;;;;;;;;;;;;;18.64;49.14;96260.22;5103958;28;20298;-70
2023/06/12 00:15:44;;;;;;;;;;;;;;;18.64;49.92;96260.22;5104796;28;20288;-70
2023/06/12 00:18:11;;;;;;;;;;;;;;;18.60;49.72;96262.63;5105129;28;19965;-70
2023/06/12 00:20:36;;;;;;;;;;;;;;;18.58;50.10;96263.97;5104995;28;19956;-70
2023/06/12 00:23:02;;;;;;;;;;;;;;;18.56;48.75;96256.28;5104412;28;20015;-72
2023/06/12 00:25:28;;;;;;;;;;;;;;;18.55;50.09;96256.56;5103560;28;19959;-70
2023/06/12 00:27:54;;;;;;;;;;;;;;;18.53;49.63;96264.78;5103261;28;19957;-77
2023/06/12 00:30:20;;;;;;;;;;;;;;;18.54;49.91;96261.09;5104703;28;19965;-76
2023/06/12 00:32:46;;;;;;;;;;;;;;;18.54;50.38;96266.41;5104693;28;20008;-77
2023/06/12 00:35:12;;;;;;;;;;;;;;;18.54;50.04;96258.44;5104745;28;19972;-76
2023/06/12 00:37:41;;;;;;;;;;;;;;;18.51;49.77;96255.50;5103705;28;19961;-77
2023/06/12 00:40:08;;;;;;;;;;;;;;;18.48;50.77;96256.03;5104458;28;19954;-77
2023/06/12 00:42:42;;;;;;;;;;;;;;;18.42;50.26;96255.28;5106671;28;19951;-70
2023/06/12 00:45:08;;;;;;;;;;;;;;;18.40;50.67;96252.91;5110106;28;19962;-78
2023/06/12 00:47:35;;;;;;;;;;;;;;;18.40;51.98;96258.22;5111514;28;19964;-77
2023/06/12 00:50:01;;;;;;;;;;;;;;;18.40;51.39;96260.06;5111429;28;19963;-78
2023/06/12 00:52:29;;;;;;;;;;;;;;;18.37;51.12;96252.63;5111321;28;19957;-78
2023/06/12 00:54:55;;;;;;;;;;;;;;;18.32;50.67;96256.13;5110899;28;20136;-78
2023/06/12 00:57:22;;;;;;;;;;;;;;;18.32;51.41;96250.03;5111315;28;20101;-78
2023/06/12 00:59:48;;;;;;;;;;;;;;;18.32;51.47;96250.81;5111612;28;20140;-70
2023/06/12 01:02:14;;;;;;;;;;;;;;;18.32;51.98;96253.47;5110518;28;19958;-73
2023/06/12 01:04:42;;;;;;;;;;;;;;;18.33;51.89;96260.38;5109649;28;19970;-70
2023/06/12 01:07:08;;;;;;;;;;;;;;;18.33;52.30;96256.91;5109754;28;19955;-69
2023/06/12 01:09:43;;;;;;;;;;;;;;;18.29;52.03;96258.50;5111192;28;19954;-70
2023/06/12 01:12:11;;;;;;;;;;;;;;;18.24;52.38;96254.81;5111231;28;19954;-70
2023/06/12 01:14:37;;;;;;;;;;;;;;;18.21;52.72;96263.31;5111372;28;19966;-69
2023/06/12 01:17:03;;;;;;;;;;;;;;;18.16;52.90;96260.69;5111211;28;19957;-70
2023/06/12 01:19:29;;;;;;;;;;;;;;;18.14;53.39;96265.50;5111156;28;19967;-77
2023/06/12 01:21:59;;;;;;;;;;;;;;;18.12;53.16;96267.63;5111276;28;19994;-76
2023/06/12 01:24:53;;;;;;;;;;;;;;;18.09;53.46;96272.66;5111343;28;19944;-77
2023/06/12 01:27:28;;;;;;;;;;;;;;;18.00;53.74;96267.91;5111179;28;20147;-77
2023/06/12 01:29:56;;;;;;;;;;;;;;;17.94;53.80;96262.88;5109487;28;19964;-77
2023/06/12 01:32:24;;;;;;;;;;;;;;;17.88;54.19;96263.97;5110774;28;19955;-77
2023/06/12 01:34:53;;;;;;;;;;;;;;;17.81;54.66;96259.69;5110897;28;20219;-77
2023/06/12 01:37:33;;;;;;;;;;;;;;;17.74;54.67;96261.81;5111010;28;20143;-77
2023/06/12 01:40:00;;;;;;;;;;;;;;;17.69;55.29;96269.78;5109535;28;19958;-77
2023/06/12 01:42:27;;;;;;;;;;;;;;;17.62;55.33;96261.31;5110428;28;19942;-76
2023/06/12 01:44:53;;;;;;;;;;;;;;;17.57;56.11;96262.09;5110034;28;19962;-78
2023/06/12 01:47:20;;;;;;;;;;;;;;;17.52;56.17;96267.41;5110867;28;19950;-77
2023/06/12 01:49:46;;;;;;;;;;;;;;;17.45;56.08;96267.69;5110486;28;20223;-78
2023/06/12 01:52:12;;;;;;;;;;;;;;;17.38;56.48;96261.84;5110630;28;19957;-77
2023/06/12 01:54:37;;;;;;;;;;;;;;;17.33;56.56;96258.41;5107310;28;19953;-77
2023/06/12 01:57:03;;;;;;;;;;;;;;;17.24;57.28;96256.28;5107485;28;19951;-77
2023/06/12 01:59:29;;;;;;;;;;;;;;;17.18;57.25;96253.91;5106372;28;19960;-72
2023/06/12 02:01:55;;;;;;;;;;;;;;;17.09;57.41;96250.19;5106281;28;20238;-72
2023/06/12 02:04:21;;;;;;;;;;;;;;;17.03;57.77;96252.84;5089172;28;20261;-72
2023/06/12 02:06:48;;;;;;;;;;;;;;;16.98;57.46;96250.16;5106104;28;19992;-73
2023/06/12 02:09:15;;;;;;;;;;;;;;;16.94;58.43;96249.09;5107450;28;20110;-73
2023/06/12 02:11:41;;;;;;;;;;;;;;;16.83;58.85;96242.22;5106830;28;19953;-72
2023/06/12 02:14:07;;;;;;;;;;;;;;;16.76;58.66;96239.78;5106172;28;19978;-72
2023/06/12 02:16:33;;;;;;;;;;;;;;;16.72;59.31;96243.22;5106404;28;19957;-77
2023/06/12 02:18:59;;;;;;;;;;;;;;;16.71;58.99;96236.31;5107231;28;19958;-72
2023/06/12 02:21:25;;;;;;;;;;;;;;;16.72;59.09;96245.88;5107160;28;20233;-72
2023/06/12 02:23:51;;;;;;;;;;;;;;;16.74;58.85;96249.06;5107303;28;19975;-72
2023/06/12 02:26:17;;;;;;;;;;;;;;;16.75;59.12;96248.78;5107105;28;19951;-72
2023/06/12 02:28:43;;;;;;;;;;;;;;;16.78;59.77;96250.13;5106823;28;19952;-72
2023/06/12 02:31:09;;;;;;;;;;;;;;;16.78;59.60;96256.22;5107027;28;20154;-72
2023/06/12 02:33:37;;;;;;;;;;;;;;;16.78;59.41;96245.63;5106911;28;19949;-76
2023/06/12 02:36:03;;;;;;;;;;;;;;;16.78;59.30;96248.25;5105597;28;19960;-70
2023/06/12 02:38:29;;;;;;;;;;;;;;;16.78;59.86;96244.84;5106835;28;19959;-71
2023/06/12 02:40:57;;;;;;;;;;;;;;;16.75;60.07;96245.34;5106775;28;20218;-70
2023/06/12 02:43:23;;;;;;;;;;;;;;;16.69;61.05;96251.69;5105723;28;19964;-70
2023/06/12 02:45:48;;;;;;;;;;;;;;;16.61;60.68;96245.84;5105577;28;19950;-70
2023/06/12 02:48:14;;;;;;;;;;;;;;;16.54;60.04;96236.56;5106686;28;19950;-70
2023/06/12 02:50:40;;;;;;;;;;;;;;;16.48;60.19;96241.03;5105405;28;20239;-77
2023/06/12 02:53:06;;;;;;;;;;;;;;;16.42;60.22;96250.00;5106337;28;20235;-77
2023/06/12 02:55:32;;;;;;;;;;;;;;;16.39;60.76;96250.53;5106286;28;19952;-72
2023/06/12 02:57:58;;;;;;;;;;;;;;;16.34;60.24;96243.38;5106289;28;20127;-72
2023/06/12 03:00:23;;;;;;;;;;;;;;;16.31;60.54;96259.75;5106501;28;20229;-72
2023/06/12 03:02:55;;;;;;;;;;;;;;;16.27;61.13;96258.69;5106271;28;19961;-73
2023/06/12 03:05:25;;;;;;;;;;;;;;;16.22;61.51;96259.47;5105604;28;19951;-72
2023/06/12 03:07:52;;;;;;;;;;;;;;;16.18;61.50;96261.03;5106203;28;19965;-73
2023/06/12 03:10:18;;;;;;;;;;;;;;;16.16;62.16;96254.41;5105305;28;19962;-77
2023/06/12 03:12:44;;;;;;;;;;;;;;;16.13;60.57;96254.94;5106374;28;19998;-70
2023/06/12 03:15:10;;;;;;;;;;;;;;;16.12;62.09;96255.97;5106424;28;19951;-69
2023/06/12 03:17:36;;;;;;;;;;;;;;;16.06;62.35;96252.50;5105817;28;20245;-69
2023/06/12 03:20:05;;;;;;;;;;;;;;;16.03;62.52;96256.47;5106227;28;19991;-69
2023/06/12 03:22:31;;;;;;;;;;;;;;;16.00;62.74;96264.13;5105733;28;19962;-69
2023/06/12 03:24:57;;;;;;;;;;;;;;;15.98;62.96;96260.94;5105788;28;19956;-69
2023/06/12 03:27:23;;;;;;;;;;;;;;;15.95;63.48;96264.88;5105964;28;19954;-73
2023/06/12 03:29:49;;;;;;;;;;;;;;;15.92;62.81;96269.91;5104511;28;19960;-71
2023/06/12 03:32:15;;;;;;;;;;;;;;;15.92;63.44;96269.91;5105778;28;20303;-70
2023/06/12 03:34:41;;;;;;;;;;;;;;;15.91;64.35;96271.75;5105287;28;19948;-70
2023/06/12 03:37:06;;;;;;;;;;;;;;;15.93;63.74;96272.28;5105660;28;19959;-71
2023/06/12 03:39:32;;;;;;;;;;;;;;;15.95;64.62;96275.47;5104865;28;19938;-70
2023/06/12 03:41:58;;;;;;;;;;;;;;;15.97;64.12;96273.34;5105698;28;19956;-70
2023/06/12 03:44:24;;;;;;;;;;;;;;;15.99;63.95;96278.41;5104620;28;20015;-70
2023/06/12 03:46:50;;;;;;;;;;;;;;;15.99;63.96;96281.03;5105223;28;20135;-73
2023/06/12 03:49:16;;;;;;;;;;;;;;;15.99;63.78;96284.47;5105540;28;19953;-72
2023/06/12 03:51:42;;;;;;;;;;;;;;;15.99;64.44;96289.78;5104162;28;19982;-72
2023/06/12 03:54:09;;;;;;;;;;;;;;;15.96;64.52;96285.00;5105185;28;19950;-72
2023/06/12 03:56:35;;;;;;;;;;;;;;;15.93;64.18;96285.50;5103940;28;19959;-72
2023/06/12 03:59:01;;;;;;;;;;;;;;;15.89;64.57;96291.56;5105245;28;20319;-72
2023/06/12 04:01:27;;;;;;;;;;;;;;;15.86;64.80;96298.16;5103937;28;20253;-72
2023/06/12 04:03:53;;;;;;;;;;;;;;;15.82;64.77;96305.81;5103886;28;19988;-70
2023/06/12 04:06:24;;;;;;;;;;;;;;;15.79;65.24;96301.03;5105233;28;19965;-72
2023/06/12 04:08:51;;;;;;;;;;;;;;;15.76;65.57;96312.09;5087085;28;20937;-70
2023/06/12 04:11:18;;;;;;;;;;;;;;;15.74;65.17;96316.84;5105294;28;19963;-69
2023/06/12 04:13:44;;;;;;;;;;;;;;;15.73;65.78;96322.41;5104954;28;19956;-70
2023/06/12 04:16:10;;;;;;;;;;;;;;;15.73;65.70;96309.19;5103513;28;19960;-69
2023/06/12 04:18:37;;;;;;;;;;;;;;;15.76;65.68;96319.25;5103139;28;20007;-69
2023/06/12 04:21:04;;;;;;;;;;;;;;;15.81;66.42;96321.91;5104727;28;19948;-70
2023/06/12 04:23:31;;;;;;;;;;;;;;;15.85;66.54;96324.84;5104825;28;19955;-77
2023/06/12 04:26:04;;;;;;;;;;;;;;;15.88;66.40;96329.66;5103450;28;19968;-71
2023/06/12 04:28:31;;;;;;;;;;;;;;;15.93;65.64;96319.09;5105025;28;19957;-71
2023/06/12 04:30:57;;;;;;;;;;;;;;;15.97;66.24;96323.63;5104225;28;19956;-71
2023/06/12 04:33:23;;;;;;;;;;;;;;;16.06;66.10;96320.50;5104771;28;20228;-71
2023/06/12 04:35:50;;;;;;;;;;;;;;;16.12;65.80;96322.91;5105070;28;19938;-71
2023/06/12 04:38:16;;;;;;;;;;;;;;;16.20;66.10;96327.72;5104773;28;19964;-71
2023/06/12 04:40:44;;;;;;;;;;;;;;;16.27;65.90;96322.19;5103747;28;19963;-73
2023/06/12 04:43:10;;;;;;;;;;;;;;;16.34;66.55;96327.28;5103715;28;19962;-76
2023/06/12 04:45:36;;;;;;;;;;;;;;;16.42;65.66;96324.94;5104615;28;20248;-73
2023/06/12 04:48:02;;;;;;;;;;;;;;;16.51;65.34;96316.50;5104842;28;19949;-73
2023/06/12 04:50:30;;;;;;;;;;;;;;;16.60;66.52;96325.53;5104061;28;19964;-73
2023/06/12 04:52:55;;;;;;;;;;;;;;;16.66;65.31;96305.97;5104455;28;19949;-73
2023/06/12 04:55:22;;;;;;;;;;;;;;;16.74;66.37;96321.34;5104634;28;19960;-73
2023/06/12 04:57:52;;;;;;;;;;;;;;;16.86;63.49;96309.75;5104587;28;19957;-74
2023/06/12 05:00:19;;;;;;;;;;;;;;;16.96;65.13;96315.06;5104602;28;19960;-70
2023/06/12 05:02:46;;;;;;;;;;;;;;;17.06;64.01;96317.75;5104081;28;19934;-76
2023/06/12 05:05:12;;;;;;;;;;;;;;;17.20;64.92;96316.19;5103492;28;19953;-77
2023/06/12 05:07:38;;;;;;;;;;;;;;;17.37;64.25;96318.59;5104163;28;19959;-77
2023/06/12 05:10:04;;;;;;;;;;;;;;;17.54;64.13;96313.03;5104288;28;19957;-77
2023/06/12 05:12:30;;;;;;;;;;;;;;;17.75;64.58;96320.97;5104099;28;20221;-77
2023/06/12 05:14:59;;;;;;;;;;;;;;;17.95;63.15;96306.91;5103269;28;19960;-78
2023/06/12 05:17:26;;;;;;;;;;;;;;;18.17;62.94;96312.72;5104479;28;19974;-70
2023/06/12 05:19:52;;;;;;;;;;;;;;;18.41;62.23;96310.22;5102783;28;20271;-73
2023/06/12 05:22:18;;;;;;;;;;;;;;;18.66;61.04;96305.91;5103096;28;19959;-77
2023/06/12 05:24:43;;;;;;;;;;;;;;;18.88;61.39;96307.41;5104354;28;19954;-77
2023/06/12 05:27:10;;;;;;;;;;;;;;;19.11;60.23;96304.09;5104339;28;19957;-77
2023/06/12 05:29:36;;;;;;;;;;;;;;;19.35;59.91;96295.44;5106551;28;19955;-76
2023/06/12 05:32:02;;;;;;;;;;;;;;;19.59;59.75;96301.63;5107537;28;20044;-77
2023/06/12 05:34:28;;;;;;;;;;;;;;;19.84;58.99;96302.47;5107869;28;19967;-77
2023/06/12 05:36:54;;;;;;;;;;;;;;;20.06;58.89;96305.47;5108092;28;20251;-77
2023/06/12 05:39:20;;;;;;;;;;;;;;;20.26;58.15;96293.81;5107474;28;19953;-70
2023/06/12 05:41:46;;;;;;;;;;;;;;;20.48;57.95;96301.28;5108000;28;19957;-70
2023/06/12 05:44:11;;;;;;;;;;;;;;;20.73;56.97;96290.63;5106416;28;19998;-70
2023/06/12 05:46:38;;;;;;;;;;;;;;;20.95;56.67;96290.06;5108014;28;19956;-70
2023/06/12 05:49:04;;;;;;;;;;;;;;;21.07;55.63;96275.22;5107677;28;19958;-70
2023/06/12 05:51:30;;;;;;;;;;;;;;;21.21;55.26;96274.50;5107671;28;20024;-70
2023/06/12 05:53:55;;;;;;;;;;;;;;;21.30;55.28;96286.06;5107696;28;19952;-70
2023/06/12 05:56:23;;;;;;;;;;;;;;;21.40;54.78;96274.47;5106342;28;20162;-71
2023/06/12 05:58:49;;;;;;;;;;;;;;;21.52;54.32;96274.03;5107619;28;19972;-73
2023/06/12 06:01:21;;;;;;;;;;;;;;;21.62;54.25;96273.84;5105981;28;20222;-72
2023/06/12 06:03:48;;;;;;;;;;;;;;;21.77;53.90;96267.47;5107545;28;19953;-73
2023/06/12 06:06:15;;;;;;;;;;;;;;;21.91;53.14;96270.94;5107720;28;19949;-72
2023/06/12 06:08:41;;;;;;;;;;;;;;;22.05;53.14;96262.97;5089276;28;20255;-72
2023/06/12 06:11:07;;;;;;;;;;;;;;;22.18;51.68;96262.16;5106171;28;19993;-72
2023/06/12 06:13:33;;;;;;;;;;;;;;;22.35;52.83;96282.19;5089310;28;19957;-76
2023/06/12 06:16:01;;;;;;;;;;;;;;;22.54;52.09;96280.19;5107102;28;19961;-73
2023/06/12 06:18:27;;;;;;;;;;;;;;;22.69;51.57;96281.75;5107338;28;19954;-73
2023/06/12 06:20:53;;;;;;;;;;;;;;;22.79;51.25;96283.44;5107299;28;19950;-74
2023/06/12 06:23:21;;;;;;;;;;;;;;;22.87;51.27;96282.72;5105697;28;20140;-73
2023/06/12 06:25:47;;;;;;;;;;;;;;;22.93;50.79;96289.53;5107451;28;20242;-73
2023/06/12 06:28:13;;;;;;;;;;;;;;;23.06;51.02;96290.63;5107068;28;19961;-73
2023/06/12 06:30:39;;;;;;;;;;;;;;;23.17;50.40;96294.63;5106882;28;20021;-74
2023/06/12 06:33:05;;;;;;;;;;;;;;;23.18;49.57;96288.22;5106971;28;19971;-72
2023/06/12 06:35:31;;;;;;;;;;;;;;;23.23;48.97;96295.31;5105378;28;19957;-72
2023/06/12 06:37:56;;;;;;;;;;;;;;;23.33;49.33;96295.09;5105208;28;20132;-74
2023/06/12 06:40:22;;;;;;;;;;;;;;;23.33;48.32;96294.28;5104956;28;19954;-73
2023/06/12 06:42:48;;;;;;;;;;;;;;;23.33;48.04;96297.75;5106452;28;19954;-73
2023/06/12 06:45:14;;;;;;;;;;;;;;;23.20;46.48;96296.69;5088613;28;19965;-72
2023/06/12 06:47:40;;;;;;;;;;;;;;;23.01;47.44;96310.22;5105246;28;19995;-73
2023/06/12 06:50:06;;;;;;;;;;;;;;;23.03;48.31;96312.59;5105069;28;19965;-73
2023/06/12 06:52:32;;;;;;;;;;;;;;;23.20;49.28;96317.31;5106471;28;19986;-78
2023/06/12 06:54:58;;;;;;;;;;;;;;;23.34;47.99;96304.69;5106482;28;20241;-78
2023/06/12 06:57:23;;;;;;;;;;;;;;;23.42;48.07;96306.63;5106460;28;20262;-77
2023/06/12 06:59:55;;;;;;;;;;;;;;;23.45;46.74;96311.38;5106406;28;19940;-77
2023/06/12 07:02:22;;;;;;;;;;;;;;;23.38;47.51;96307.56;5106623;28;19954;-78
2023/06/12 07:04:49;;;;;;;;;;;;;;;23.41;45.91;96306.94;5104841;28;19957;-79
2023/06/12 07:07:15;;;;;;;;;;;;;;;23.45;47.25;96314.03;5106358;28;19959;-77
2023/06/12 07:09:41;;;;;;;;;;;;;;;23.55;47.24;96318.38;5104538;28;19962;-72
2023/06/12 07:12:07;;;;;;;;;;;;;;;23.65;47.53;96312.78;5105909;28;19973;-74
2023/06/12 07:14:33;;;;;;;;;;;;;;;23.90;47.71;96308.69;5105970;28;20232;-74
2023/06/12 07:16:58;;;;;;;;;;;;;;;24.11;47.36;96308.19;5106128;28;19953;-74
2023/06/12 07:19:24;;;;;;;;;;;;;;;24.23;47.08;96304.91;5106167;28;20046;-74
2023/06/12 07:21:50;;;;;;;;;;;;;;;24.19;44.59;96299.41;5105601;28;19962;-74
2023/06/12 07:24:20;;;;;;;;;;;;;;;24.17;45.48;96308.81;5106007;28;19951;-74
2023/06/12 07:26:46;;;;;;;;;;;;;;;24.11;45.31;96303.59;5106178;28;20105;-70
2023/06/12 07:29:12;;;;;;;;;;;;;;;23.98;45.49;96312.53;5106162;28;19963;-72
2023/06/12 07:31:38;;;;;;;;;;;;;;;24.05;45.86;96296.00;5105731;28;19964;-77
2023/06/12 07:34:04;;;;;;;;;;;;;;;24.17;45.75;96301.59;5105814;28;19959;-76
2023/06/12 07:36:35;;;;;;;;;;;;;;;24.18;44.91;96302.38;5104676;28;19953;-76
2023/06/12 07:39:02;;;;;;;;;;;;;;;24.20;45.01;96305.53;5105753;28;19963;-76
2023/06/12 07:41:28;;;;;;;;;;;;;;;24.34;45.60;96300.88;5087050;28;19960;-76
2023/06/12 07:43:53;;;;;;;;;;;;;;;24.28;43.90;96302.09;5105563;28;19976;-76
2023/06/12 07:46:19;;;;;;;;;;;;;;;24.20;43.38;96305.53;5105672;28;19949;-80
2023/06/12 07:48:45;;;;;;;;;;;;;;;24.16;45.11;96308.03;5105524;28;20111;-73
2023/06/12 07:51:11;;;;;;;;;;;;;;;24.22;45.12;96314.06;5103866;28;19967;-73
2023/06/12 07:53:37;;;;;;;;;;;;;;;24.44;45.91;96305.13;5086161;28;19963;-73
2023/06/12 07:56:03;;;;;;;;;;;;;;;24.51;45.30;96306.31;5087527;28;19946;-73
2023/06/12 07:58:30;;;;;;;;;;;;;;;24.65;45.16;96300.03;5105319;28;19992;-73
2023/06/12 08:00:56;;;;;;;;;;;;;;;24.85;44.54;96299.44;5087389;28;19953;-73
2023/06/12 08:03:25;;;;;;;;;;;;;;;25.00;43.32;96292.81;5105467;28;20005;-77
2023/06/12 08:05:52;;;;;;;;;;;;;;;25.13;44.17;96291.09;5104004;28;19959;-78
2023/06/12 08:08:18;;;;;;;;;;;;;;;25.23;42.14;96293.50;5104991;28;20231;-70
2023/06/12 08:10:44;;;;;;;;;;;;;;;25.26;41.04;96292.88;5105073;28;19959;-71
2023/06/12 08:13:09;;;;;;;;;;;;;;;25.14;41.52;96295.38;5105121;28;20015;-71
2023/06/12 08:15:36;;;;;;;;;;;;;;;25.14;42.71;96303.41;5105141;28;19995;-70
2023/06/12 08:18:02;;;;;;;;;;;;;;;25.24;41.62;96294.28;5103600;28;19959;-71
2023/06/12 08:20:29;;;;;;;;;;;;;;;25.41;42.88;96294.28;5105037;28;19949;-70
2023/06/12 08:22:55;;;;;;;;;;;;;;;25.54;41.81;96286.38;5105008;28;20144;-72
2023/06/12 08:25:21;;;;;;;;;;;;;;;25.51;41.17;96287.78;5087208;28;19948;-71
2023/06/12 08:27:47;;;;;;;;;;;;;;;25.43;41.82;96296.63;5103986;28;20275;-71
2023/06/12 08:30:13;;;;;;;;;;;;;;;25.47;41.39;96290.34;5103814;28;20059;-70
2023/06/12 08:32:39;;;;;;;;;;;;;;;25.58;40.42;96281.97;5104308;28;19969;-72
2023/06/12 08:35:05;;;;;;;;;;;;;;;25.54;38.22;96281.78;5104671;28;19960;-71
2023/06/12 08:37:32;;;;;;;;;;;;;;;25.46;38.98;96296.00;5104546;28;19953;-71
2023/06/12 08:39:58;;;;;;;;;;;;;;;25.45;39.88;96289.88;5104534;28;19952;-72
2023/06/12 08:42:24;;;;;;;;;;;;;;;25.54;39.72;96289.06;5103447;28;20034;-72
2023/06/12 08:44:55;;;;;;;;;;;;;;;25.54;38.81;96300.59;5103297;28;19949;-77
2023/06/12 08:47:21;;;;;;;;;;;;;;;25.55;36.10;96286.03;5104761;28;19962;-77
2023/06/12 08:49:48;;;;;;;;;;;;;;;25.52;36.01;96284.78;5103308;28;19997;-77
2023/06/12 08:52:14;;;;;;;;;;;;;;;25.59;37.06;96284.28;5103973;28;19965;-76
2023/06/12 08:54:40;;;;;;;;;;;;;;;25.67;36.92;96285.41;5104658;28;19938;-77
2023/06/12 08:57:10;;;;;;;;;;;;;;;25.73;37.57;96284.91;5104620;28;19952;-76
2023/06/12 08:59:36;;;;;;;;;;;;;;;25.45;31.06;96295.22;5104638;28;20141;-76
2023/06/12 09:02:06;;;;;;;;;;;;;;;25.36;34.27;96294.44;5104275;28;19954;-73
2023/06/12 09:04:38;;;;;;;;;;;;;;;25.02;30.22;96289.84;5105670;28;19955;-71
2023/06/12 09:07:04;;;;;;;;;;;;;;;25.12;33.35;96287.63;5108779;28;19957;-72
2023/06/12 09:09:40;;;;;;;;;;;;;;;25.17;35.09;96285.88;5108606;28;20258;-72
2023/06/12 09:12:10;;;;;;;;;;;;;;;25.28;34.05;96276.44;5106729;28;19979;-72
2023/06/12 09:14:36;;;;;;;;;;;;;;;25.26;32.94;96284.81;5108517;28;19953;-73
2023/06/12 09:17:03;;;;;;;;;;;;;;;25.36;34.41;96290.97;5107521;28;19953;-77
2023/06/12 09:19:41;;;;;;;;;;;;;;;25.52;34.30;96298.22;5108132;28;19952;-80
2023/06/12 09:22:07;;;;;;;;;;;;;;;25.51;33.71;96285.91;5108021;28;19952;-77
2023/06/12 09:24:33;;;;;;;;;;;;;;;25.57;34.35;96286.50;5108002;28;19982;-77
2023/06/12 09:27:00;;;;;;;;;;;;;;;25.51;33.71;96283.22;5107992;28;19964;-77
2023/06/12 09:29:26;;;;;;;;;;;;;;;25.72;35.31;96277.97;5108251;28;19947;-77
2023/06/12 09:31:52;;;;;;;;;;;;;;;25.60;33.02;96272.47;5107498;28;20150;-77
2023/06/12 09:34:18;;;;;;;;;;;;;;;25.52;34.17;96279.41;5106675;28;19947;-77
2023/06/12 09:36:45;;;;;;;;;;;;;;;25.64;34.98;96283.34;5108182;28;19955;-72
2023/06/12 09:39:17;;;;;;;;;;;;;;;25.82;35.52;96286.78;5106646;28;19955;-71
2023/06/12 09:41:49;;;;;;;;;;;;;;;25.95;34.29;96287.72;5105881;28;21073;-71
2023/06/12 09:44:21;;;;;;;;;;;;;;;25.75;33.67;96273.06;5106876;28;20126;-71
2023/06/12 09:46:47;;;;;;;;;;;;;;;25.78;34.74;96270.50;5106779;28;19967;-71
2023/06/12 09:49:13;;;;;;;;;;;;;;;25.84;34.23;96274.59;5107824;28;19955;-71
2023/06/12 09:51:46;;;;;;;;;;;;;;;25.96;34.02;96273.97;5089310;28;19966;-71
2023/06/12 09:54:14;;;;;;;;;;;;;;;26.04;34.63;96272.34;5106577;28;19957;-71
2023/06/12 09:56:41;;;;;;;;;;;;;;;26.06;32.78;96278.19;5089623;28;19979;-72
2023/06/12 09:59:08;;;;;;;;;;;;;;;25.84;33.69;96279.19;5106267;28;19954;-71
2023/06/12 10:01:39;;;;;;;;;;;;;;;25.94;34.95;96278.09;5106143;28;19954;-71
2023/06/12 10:04:10;;;;;;;;;;;;;;;26.07;34.51;96280.56;5107635;28;19950;-71
2023/06/12 10:06:38;;;;;;;;;;;;;;;26.15;33.01;96272.81;5106615;28;20010;-71
2023/06/12 10:09:06;;;;;;;;;;;;;;;26.24;33.63;96276.25;5106496;28;19960;-71
2023/06/12 10:11:33;;;;;;;;;;;;;;;26.09;31.10;96274.88;5107174;28;19950;-71
2023/06/12 10:13:59;;;;;;;;;;;;;;;25.94;31.49;96284.25;5106326;28;19982;-71
2023/06/12 10:16:25;;;;;;;;;;;;;;;25.89;32.29;96265.59;5105132;28;19955;-81
2023/06/12 10:18:51;;;;;;;;;;;;;;;25.95;30.52;96272.38;5105704;28;19954;-81
2023/06/12 10:21:21;;;;;;;;;;;;;;;26.02;32.25;96255.78;5106627;28;19980;-81
2023/06/12 10:23:47;;;;;;;;;;;;;;;26.09;33.05;96264.13;5107132;28;19955;-80
2023/06/12 10:26:14;;;;;;;;;;;;;;;26.29;33.24;96259.91;5107021;28;20308;-80
2023/06/12 10:28:41;;;;;;;;;;;;;;;26.47;33.50;96252.56;5107889;28;19977;-80
2023/06/12 10:31:08;;;;;;;;;;;;;;;26.55;32.87;96254.41;5105675;28;20143;-77
2023/06/12 10:33:34;;;;;;;;;;;;;;;26.63;32.12;96250.13;5105286;28;19959;-77
2023/06/12 10:36:08;;;;;;;;;;;;;;;26.52;32.72;96253.16;5089130;28;20033;-78
2023/06/12 10:38:42;;;;;;;;;;;;;;;26.31;32.47;96246.94;5105886;28;19956;-78
2023/06/12 10:41:08;;;;;;;;;;;;;;;26.42;33.65;96248.16;5106799;28;19963;-78
2023/06/12 10:43:34;;;;;;;;;;;;;;;26.55;31.13;96243.66;5106911;28;19955;-77
2023/06/12 10:46:00;;;;;;;;;;;;;;;26.45;30.60;96257.47;5106533;28;19952;-77
2023/06/12 10:48:25;;;;;;;;;;;;;;;26.46;30.65;96245.63;5105450;28;19990;-77
2023/06/12 10:50:56;;;;;;;;;;;;;;;26.49;30.48;96244.94;5106572;28;19955;-72
2023/06/12 10:53:29;;;;;;;;;;;;;;;26.60;31.41;96235.41;5088309;28;19966;-72
2023/06/12 10:56:06;;;;;;;;;;;;;;;26.87;33.12;96239.50;5106551;28;20118;-72
2023/06/12 10:58:34;;;;;;;;;;;;;;;27.01;32.93;96233.06;5106489;28;19960;-71
2023/06/12 11:01:00;;;;;;;;;;;;;;;27.13;33.27;96233.09;5104749;28;20257;-72
2023/06/12 11:03:28;;;;;;;;;;;;;;;27.23;32.52;96219.28;5105307;28;19960;-71
2023/06/12 11:05:55;;;;;;;;;;;;;;;27.17;31.93;96231.34;5104830;28;19957;-72
2023/06/12 11:08:23;;;;;;;;;;;;;;;26.82;30.97;96228.94;5087884;28;19960;-72
2023/06/12 11:10:49;;;;;;;;;;;;;;;26.79;32.54;96231.50;5106056;28;19959;-72
2023/06/12 11:13:15;;;;;;;;;;;;;;;26.71;31.09;96236.63;5105998;28;19965;-71
2023/06/12 11:15:45;;;;;;;;;;;;;;;26.62;30.95;96224.34;5106158;28;20024;-72
2023/06/12 11:18:12;;;;;;;;;;;;;;;26.66;33.35;96225.25;5105814;28;20243;-72
2023/06/12 11:20:38;;;;;;;;;;;;;;;26.82;32.63;96215.50;5104723;28;19959;-72
2023/06/12 11:23:05;;;;;;;;;;;;;;;27.06;31.47;96208.63;5105451;28;20142;-72
2023/06/12 11:25:31;;;;;;;;;;;;;;;27.31;31.51;96221.09;5104444;28;19963;-77
2023/06/12 11:27:57;;;;;;;;;;;;;;;27.26;30.28;96212.47;5104721;28;19959;-72
2023/06/12 11:30:24;;;;;;;;;;;;;;;27.09;30.41;96224.94;5104337;28;20100;-81
2023/06/12 11:32:50;;;;;;;;;;;;;;;27.21;31.09;96226.09;5105516;28;19960;-82
2023/06/12 11:35:16;;;;;;;;;;;;;;;27.24;29.82;96217.38;5105517;28;20218;-80
2023/06/12 11:37:42;;;;;;;;;;;;;;;27.27;30.38;96209.41;5104610;28;19953;-80
2023/06/12 11:40:10;;;;;;;;;;;;;;;27.42;30.24;96220.69;5104249;28;19999;-81
2023/06/12 11:42:36;;;;;;;;;;;;;;;27.49;29.46;96215.56;5105072;28;19974;-81
2023/06/12 11:45:15;;;;;;;;;;;;;;;27.50;29.30;96214.44;5104350;28;19964;-73
2023/06/12 11:47:42;;;;;;;;;;;;;;;27.59;30.79;96207.03;5104109;28;19962;-80
2023/06/12 11:50:09;;;;;;;;;;;;;;;27.72;29.21;96210.56;5105492;28;19942;-81
2023/06/12 11:52:36;;;;;;;;;;;;;;;27.60;28.21;96205.13;5105045;28;19968;-80
2023/06/12 11:55:06;;;;;;;;;;;;;;;27.47;28.33;96197.03;5103859;28;20239;-82
2023/06/12 11:57:32;;;;;;;;;;;;;;;27.54;30.05;96204.56;5103821;28;19963;-81
2023/06/12 11:59:59;;;;;;;;;;;;;;;27.68;29.82;96196.97;5105547;28;20024;-81
2023/06/12 12:02:29;;;;;;;;;;;;;;;27.99;29.33;96195.69;5103818;28;19961;-78
2023/06/12 12:04:56;;;;;;;;;;;;;;;28.21;27.92;96185.56;5087122;28;19958;-74
2023/06/12 12:07:22;;;;;;;;;;;;;;;28.13;26.99;96189.94;5086891;28;19966;-72
2023/06/12 12:09:48;;;;;;;;;;;;;;;27.94;28.34;96193.19;5103982;28;19955;-71
2023/06/12 12:12:15;;;;;;;;;;;;;;;27.81;29.49;96195.06;5105059;28;19982;-72
2023/06/12 12:14:47;;;;;;;;;;;;;;;27.79;27.98;96202.69;5105115;28;20137;-71
2023/06/12 12:17:15;;;;;;;;;;;;;;;27.57;27.70;96192.31;5104856;28;20150;-71
2023/06/12 12:19:41;;;;;;;;;;;;;;;27.63;29.13;96199.06;5105264;28;20141;-71
2023/06/12 12:22:08;;;;;;;;;;;;;;;27.66;28.64;96193.03;5086427;28;19951;-73
2023/06/12 12:24:35;;;;;;;;;;;;;;;27.65;27.55;96186.06;5103937;28;20251;-71
2023/06/12 12:27:01;;;;;;;;;;;;;;;27.65;28.25;96188.75;5103833;28;19957;-71
2023/06/12 12:29:26;;;;;;;;;;;;;;;27.84;27.65;96170.13;5105069;28;20144;-72
2023/06/12 12:31:52;;;;;;;;;;;;;;;27.98;28.11;96177.91;5104687;28;20133;-72
2023/06/12 12:34:18;;;;;;;;;;;;;;;28.06;27.51;96168.16;5104728;28;19960;-70
2023/06/12 12:36:44;;;;;;;;;;;;;;;27.82;26.64;96171.59;5103464;28;19960;-72
2023/06/12 12:39:10;;;;;;;;;;;;;;;27.88;28.32;96175.66;5102779;28;19963;-73
2023/06/12 12:41:36;;;;;;;;;;;;;;;28.03;28.53;96163.41;5086576;28;19955;-78
2023/06/12 12:44:02;;;;;;;;;;;;;;;28.20;27.63;96154.31;5104171;28;19952;-75
2023/06/12 12:46:28;;;;;;;;;;;;;;;28.26;27.75;96169.13;5104705;28;19940;-75